Time;durP1;ratioP1;P1;durP2;ratioP2;P2;SDS_P1;SDS_P2;PMS_P1;PMS_P2;Temp;Humidity;BMP_temperature;BMP_pressure;BME280_temperature;BME280_humidity;BME280_pressure;Samples;Min_cycle;Max_cycle;Signal;HPM_P1;HPM_P2
2020/05/22 00:00:59;;;;;;;5.2;4.2;;;;;;;13.33;74.1084;943.8502;;;;
2020/05/22 00:03:22;;;;;;;5.1;4;;;;;;;13.32;74.16309;943.8565;;;;
2020/05/22 00:05:40;;;;;;;6.1;4.5;;;;;;;13.26;74.5791;943.8464;;;;
2020/05/22 00:09:23;;;;;;;6.2;4.2;;;;;;;13.28;74.22559;943.9458;;;;
2020/05/22 00:10:32;;;;;;;6;4.2;;;;;;;13.27;74.20117;943.8544;;;;
2020/05/22 00:12:52;;;;;;;7.4;4.3;;;;;;;13.28;74.43262;943.8281;;;;
2020/05/22 00:15:20;;;;;;;4.6;4.1;;;;;;;13.37;73.65527;943.7913;;;;
2020/05/22 00:18:01;;;;;;;4.8;4;;;;;;;13.35;73.5127;943.7279;;;;
2020/05/22 00:20:23;;;;;;;5.1;4;;;;;;;13.3;73.62109;943.7419;;;;
2020/05/22 00:22:38;;;;;;;4.5;4.1;;;;;;;13.3;73.58691;943.738;;;;
2020/05/22 00:25:03;;;;;;;4.7;4;;;;;;;13.29;73.66406;943.6739;;;;
2020/05/22 00:27:33;;;;;;;6.3;4;;;;;;;13.27;73.60254;943.6761;;;;
2020/05/22 00:29:54;;;;;;;6.5;4.4;;;;;;;13.12;74.1875;943.6336;;;;
2020/05/22 00:32:20;;;;;;;5.2;4.4;;;;;;;13.08;74.35254;943.726;;;;
2020/05/22 00:34:45;;;;;;;5.3;4.1;;;;;;;13.11;74.3916;943.7278;;;;
2020/05/22 00:37:22;;;;;;;6.6;4;;;;;;;13.14;74.23535;943.7824;;;;
2020/05/22 00:39:44;;;;;;;4.8;4.1;;;;;;;13.16;73.99707;943.7402;;;;
2020/05/22 00:42:02;;;;;;;6.3;4.3;;;;;;;13.06;74.40527;943.7505;;;;
2020/05/22 00:45:11;;;;;;;5.4;4.3;;;;;;;12.99;74.77344;943.748;;;;
2020/05/22 00:47:06;;;;;;;6.2;4.3;;;;;;;12.88;75.33984;943.7351;;;;
2020/05/22 00:49:32;;;;;;;6.2;4.3;;;;;;;12.83;75.43457;943.7186;;;;
2020/05/22 00:52:27;;;;;;;5.2;4.2;;;;;;;12.79;75.56543;943.6612;;;;
2020/05/22 00:54:08;;;;;;;5.7;4.2;;;;;;;12.66;76.46191;943.6448;;;;
2020/05/22 01:01:36;;;;;;;5;4.5;;;;;;;12.59;76.79297;943.6909;;;;
2020/05/22 01:04:19;;;;;;;5.5;4.4;;;;;;;12.74;76.0625;943.7703;;;;
2020/05/22 01:06:20;;;;;;;4.7;4.2;;;;;;;12.8;75.54395;943.7875;;;;
2020/05/22 01:08:38;;;;;;;5.3;4.3;;;;;;;12.77;75.29883;943.7497;;;;
2020/05/22 01:11:10;;;;;;;4.6;4;;;;;;;12.76;75.0791;943.8423;;;;
2020/05/22 01:14:17;;;;;;;5;3.7;;;;;;;12.61;75.66992;943.8069;;;;
2020/05/22 01:21:41;;;;;;;5.1;4.3;;;;;;;12.48;75.89063;943.8295;;;;
2020/05/22 01:24:10;;;;;;;5.7;4;;;;;;;12.41;76.17578;943.7629;;;;
2020/05/22 01:26:28;;;;;;;4.3;3.9;;;;;;;12.42;76.09766;943.8329;;;;
2020/05/22 01:28:50;;;;;;;5.5;4.2;;;;;;;12.38;76.51563;943.8345;;;;
2020/05/22 01:31:15;;;;;;;5.3;3.9;;;;;;;12.42;76.29297;943.8585;;;;
2020/05/22 01:33:40;;;;;;;4.3;3.9;;;;;;;12.28;77.21973;943.8486;;;;
2020/05/22 01:36:05;;;;;;;4.8;4.3;;;;;;;12.25;77.47559;943.9033;;;;
2020/05/22 01:38:30;;;;;;;5.9;4.4;;;;;;;12.26;77.50391;943.866;;;;
2020/05/22 01:40:56;;;;;;;6;4.4;;;;;;;12.32;77.19043;944.0111;;;;
2020/05/22 01:43:21;;;;;;;4.9;4.5;;;;;;;12.27;77.1709;944.0648;;;;
2020/05/22 01:45:48;;;;;;;6.6;5.5;;;;;;;12.25;77.27148;944.1117;;;;
2020/05/22 01:48:13;;;;;;;7.2;5.5;;;;;;;12.26;77.46777;944.0719;;;;
2020/05/22 01:50:38;;;;;;;5.9;4.8;;;;;;;12.3;77.12988;944.1401;;;;
2020/05/22 01:53:20;;;;;;;4.8;4.4;;;;;;;12.31;77.13379;944.1052;;;;
2020/05/22 01:55:46;;;;;;;4.7;4.2;;;;;;;12.2;77.48047;944.1004;;;;
2020/05/22 01:58:00;;;;;;;6;4.7;;;;;;;12.13;77.99316;944.1035;;;;
2020/05/22 02:00:26;;;;;;;5.4;4.9;;;;;;;12.12;77.94727;944.1234;;;;
2020/05/22 02:02:49;;;;;;;5.3;4.8;;;;;;;12.07;78.28125;944.1044;;;;
2020/05/22 02:05:16;;;;;;;6.6;5.1;;;;;;;12.02;78.28516;944.1284;;;;
2020/05/22 02:07:41;;;;;;;5.5;4.7;;;;;;;12.05;77.7959;944.1487;;;;
2020/05/22 02:10:07;;;;;;;5;4.5;;;;;;;12.15;77.1748;944.1253;;;;
2020/05/22 02:12:32;;;;;;;7.6;5;;;;;;;12.15;77.00098;944.0575;;;;
2020/05/22 02:14:57;;;;;;;5.3;4.2;;;;;;;12.1;76.98145;944.1566;;;;
2020/05/22 02:17:28;;;;;;;5.5;4.3;;;;;;;11.99;77.4082;944.2003;;;;
2020/05/22 02:19:56;;;;;;;4.3;3.9;;;;;;;12.04;77.36035;944.1933;;;;
2020/05/22 02:22:13;;;;;;;5.4;4.3;;;;;;;12.03;77.41602;944.2268;;;;
2020/05/22 02:24:38;;;;;;;4.3;3.9;;;;;;;11.99;77.33887;944.1939;;;;
2020/05/22 02:27:03;;;;;;;6.1;4.5;;;;;;;11.97;77.67969;944.2264;;;;
2020/05/22 02:29:29;;;;;;;7.6;4.8;;;;;;;11.91;77.9541;944.1969;;;;
2020/05/22 02:31:54;;;;;;;6.6;5;;;;;;;11.82;78.26074;944.1813;;;;
2020/05/22 02:34:20;;;;;;;7.3;5;;;;;;;11.82;78.27051;944.1541;;;;
2020/05/22 02:37:04;;;;;;;6.1;5;;;;;;;11.84;78.27539;944.2047;;;;
2020/05/22 02:39:10;;;;;;;5.2;4.5;;;;;;;11.82;78.40918;944.1566;;;;
2020/05/22 02:41:35;;;;;;;5.8;4.7;;;;;;;11.81;78.54395;944.1169;;;;
2020/05/22 02:44:00;;;;;;;6.4;4.6;;;;;;;11.77;78.75293;944.1041;;;;
2020/05/22 02:46:25;;;;;;;6.2;4.5;;;;;;;11.81;78.52246;944.1174;;;;
2020/05/22 02:49:06;;;;;;;8.4;4.9;;;;;;;11.81;78.47461;944.1385;;;;
2020/05/22 02:51:17;;;;;;;6.8;4.6;;;;;;;11.85;78.32227;944.1649;;;;
2020/05/22 02:53:43;;;;;;;5;4.5;;;;;;;11.77;78.57129;944.1401;;;;
2020/05/22 02:56:06;;;;;;;6.9;5;;;;;;;11.75;78.625;944.1046;;;;
2020/05/22 02:58:32;;;;;;;5;4.5;;;;;;;11.77;78.23926;944.0978;;;;
2020/05/22 03:00:57;;;;;;;6.2;4.6;;;;;;;11.69;78.47852;944.0952;;;;
2020/05/22 03:03:24;;;;;;;5.2;4.7;;;;;;;11.51;78.98145;944.057;;;;
2020/05/22 03:05:49;;;;;;;4.8;4.4;;;;;;;11.31;80.03027;944.0288;;;;
2020/05/22 03:08:15;;;;;;;8.2;5;;;;;;;11.4;79.7627;944.0367;;;;
2020/05/22 03:10:41;;;;;;;6.5;4.7;;;;;;;11.44;79.55371;944.0105;;;;
2020/05/22 03:13:06;;;;;;;5.4;4.8;;;;;;;11.46;79.83203;944.0467;;;;
2020/05/22 03:15:31;;;;;;;6.2;5;;;;;;;11.5;79.67773;944.0433;;;;
2020/05/22 03:20:38;;;;;;;6.4;5.2;;;;;;;11.43;79.89355;944.1443;;;;
2020/05/22 03:22:47;;;;;;;5.3;4.8;;;;;;;11.49;79.81543;944.166;;;;
2020/05/22 03:25:18;;;;;;;5.4;4.9;;;;;;;11.59;79.30762;944.1995;;;;
2020/05/22 03:27:37;;;;;;;6.3;4.6;;;;;;;11.65;79.09961;944.1687;;;;
2020/05/22 03:30:18;;;;;;;7;5;;;;;;;11.51;79.50977;944.1823;;;;
2020/05/22 03:35:17;;;;;;;5.4;4.9;;;;;;;11.47;79.58203;944.1227;;;;
2020/05/22 03:37:27;;;;;;;7.8;5;;;;;;;11.53;79.4541;944.1721;;;;
2020/05/22 03:40:02;;;;;;;6.1;5.1;;;;;;;11.56;79.19727;944.1894;;;;
2020/05/22 03:42:15;;;;;;;5.7;4.3;;;;;;;11.61;78.75781;944.0863;;;;
2020/05/22 03:44:34;;;;;;;6.5;4.6;;;;;;;11.68;78.29199;944.154;;;;
2020/05/22 03:47:00;;;;;;;5.9;4.4;;;;;;;11.63;78.46484;944.1708;;;;
2020/05/22 03:49:25;;;;;;;6.6;4.7;;;;;;;11.58;78.44531;944.1968;;;;
2020/05/22 03:51:51;;;;;;;5.7;4.8;;;;;;;11.52;78.9375;944.1233;;;;
2020/05/22 03:54:16;;;;;;;6.5;4.5;;;;;;;11.54;78.71191;944.1811;;;;
2020/05/22 03:56:41;;;;;;;4.7;4.2;;;;;;;11.45;78.85547;944.1613;;;;
2020/05/22 03:59:06;;;;;;;6.6;4.3;;;;;;;11.48;78.63379;944.1292;;;;
2020/05/22 04:04:56;;;;;;;5;4.4;;;;;;;11.43;79.19531;944.0853;;;;
2020/05/22 04:07:21;;;;;;;6.4;4.8;;;;;;;11.37;79.65527;944.1128;;;;
2020/05/22 04:09:46;;;;;;;5.5;4.6;;;;;;;11.18;80.36133;944.1086;;;;
2020/05/22 04:12:11;;;;;;;5.7;4.5;;;;;;;11.07;81.08496;944.0869;;;;
2020/05/22 04:14:36;;;;;;;5;4.3;;;;;;;11.33;79.94434;944.1824;;;;
2020/05/22 04:17:06;;;;;;;5.8;4.1;;;;;;;11.47;79.28223;944.1903;;;;
2020/05/22 04:19:27;;;;;;;6.7;4.4;;;;;;;11.55;79.34473;944.202;;;;
2020/05/22 04:21:53;;;;;;;5.4;4.3;;;;;;;11.64;78.88086;944.1758;;;;
2020/05/22 04:24:18;;;;;;;6.8;4.5;;;;;;;11.75;78.35059;944.1797;;;;
2020/05/22 04:26:43;;;;;;;6.2;4.5;;;;;;;11.74;78.54199;944.1309;;;;
2020/05/22 04:29:09;;;;;;;10.7;4.7;;;;;;;11.72;78.75781;944.1817;;;;
2020/05/22 04:31:34;;;;;;;6.4;4.6;;;;;;;11.68;78.9668;944.1707;;;;
2020/05/22 04:33:59;;;;;;;6.4;4.3;;;;;;;11.61;79.59375;944.1549;;;;
2020/05/22 04:38:49;;;;;;;7.4;4.9;;;;;;;11.75;79.94238;944.1349;;;;
2020/05/22 04:41:16;;;;;;;10.2;5.9;;;;;;;11.86;79.45801;944.1195;;;;
2020/05/22 04:43:41;;;;;;;10.1;5.6;;;;;;;11.97;79.03125;944.1362;;;;
2020/05/22 04:46:07;;;;;;;8.3;5.8;;;;;;;12.05;78.94336;944.1447;;;;
2020/05/22 04:48:32;;;;;;;10.2;5.2;;;;;;;12.17;77.6582;944.1799;;;;
2020/05/22 04:50:58;;;;;;;9.6;4.9;;;;;;;12.24;77.00586;944.1739;;;;
2020/05/22 04:53:23;;;;;;;5.4;4.8;;;;;;;12.37;76.38574;944.1563;;;;
2020/05/22 04:55:48;;;;;;;9.8;5;;;;;;;12.49;76.22461;944.1892;;;;
2020/05/22 04:58:13;;;;;;;12.3;5.2;;;;;;;12.45;75.91992;944.1871;;;;
2020/05/22 05:00:38;;;;;;;8.6;4.6;;;;;;;12.51;75.87109;944.0424;;;;
2020/05/22 05:03:03;;;;;;;11;4.9;;;;;;;12.48;75.86816;944.1019;;;;
2020/05/22 05:05:31;;;;;;;12.2;4.9;;;;;;;12.58;75.71289;944.1909;;;;
2020/05/22 05:07:56;;;;;;;8.7;4.2;;;;;;;12.94;76.1416;944.1761;;;;
2020/05/22 05:10:22;;;;;;;5.4;3.1;;;;;;;14.2;70.8252;944.1691;;;;
2020/05/22 05:12:47;;;;;;;7.6;3.2;;;;;;;15.72;64.86816;944.1591;;;;
2020/05/22 05:17:37;;;;;;;6.3;2.5;;;;;;;18.2;56.36816;944.1426;;;;
2020/05/22 05:20:02;;;;;;;5.9;2.5;;;;;;;19.17;54.87305;944.1397;;;;
2020/05/22 05:22:27;;;;;;;6.8;2.5;;;;;;;19.65;51.70508;944.1747;;;;
2020/05/22 05:24:53;;;;;;;7;2.4;;;;;;;19.47;51.53223;944.1707;;;;
2020/05/22 05:27:18;;;;;;;5.1;2.3;;;;;;;19.7;50.88184;944.1918;;;;
2020/05/22 05:29:43;;;;;;;7.1;2.5;;;;;;;19.48;52.12695;944.1663;;;;
2020/05/22 05:34:52;;;;;;;4;2.2;;;;;;;19.88;51.92969;944.1624;;;;
2020/05/22 05:36:59;;;;;;;5.5;2.4;;;;;;;20.35;51.53027;944.1699;;;;
2020/05/22 05:39:24;;;;;;;6.1;2.4;;;;;;;21.06;47.71777;944.1652;;;;
2020/05/22 05:41:49;;;;;;;6.3;2.5;;;;;;;21.66;46.38867;944.1958;;;;
2020/05/22 05:44:14;;;;;;;6.3;2.3;;;;;;;20.84;46.95801;944.1558;;;;
2020/05/22 05:46:40;;;;;;;3.3;2.1;;;;;;;19.92;49.78809;944.1803;;;;
2020/05/22 05:49:05;;;;;;;5;2;;;;;;;20.32;49.61035;944.1981;;;;
2020/05/22 05:51:31;;;;;;;5.2;2.1;;;;;;;21.29;46.45508;944.1964;;;;
2020/05/22 05:53:56;;;;;;;3.4;1.9;;;;;;;20.87;47.03125;944.1948;;;;
2020/05/22 05:56:21;;;;;;;4.2;1.8;;;;;;;21.85;45.02539;944.0884;;;;
2020/05/22 05:58:46;;;;;;;5.2;1.7;;;;;;;22.33;43.18555;944.1248;;;;
2020/05/22 06:01:11;;;;;;;4.3;1.9;;;;;;;22.32;43.53711;944.1227;;;;
2020/05/22 06:03:37;;;;;;;4.8;2.1;;;;;;;21.81;44.9502;944.1256;;;;
2020/05/22 06:06:02;;;;;;;5;2.1;;;;;;;21.82;44.74121;944.1285;;;;
2020/05/22 06:08:49;;;;;;;5.1;1.9;;;;;;;22.13;44.31543;944.1104;;;;
2020/05/22 06:10:54;;;;;;;7.8;2.2;;;;;;;22.69;42.77539;944.0627;;;;
2020/05/22 06:13:19;;;;;;;4.7;1.9;;;;;;;23.37;43.93457;944.0156;;;;
2020/05/22 06:15:44;;;;;;;3.1;1.8;;;;;;;24.85;38.52344;943.9523;;;;
2020/05/22 06:18:09;;;;;;;5.6;1.8;;;;;;;25.53;37.47168;943.9838;;;;
2020/05/22 06:20:35;;;;;;;5.8;1.9;;;;;;;26.65;36.8916;943.9653;;;;
2020/05/22 06:23:00;;;;;;;4.4;1.8;;;;;;;28.02;34.72266;943.9188;;;;
2020/05/22 06:25:27;;;;;;;2.5;1.7;;;;;;;28.25;36.27441;943.9348;;;;
2020/05/22 06:27:52;;;;;;;2.8;1.8;;;;;;;29.1;31.11426;943.8934;;;;
2020/05/22 06:30:20;;;;;;;3;1.9;;;;;;;28.93;32.5791;943.8837;;;;
2020/05/22 06:32:45;;;;;;;2.5;1.8;;;;;;;28.37;32.00293;943.851;;;;
2020/05/22 06:35:11;;;;;;;4.2;1.7;;;;;;;27.68;32.50098;943.8873;;;;
2020/05/22 06:37:37;;;;;;;2;1.4;;;;;;;26.57;34.89551;943.9319;;;;
2020/05/22 06:40:03;;;;;;;3.1;1.8;;;;;;;26.42;38.1748;943.9308;;;;
2020/05/22 06:42:28;;;;;;;7.6;2.1;;;;;;;27.28;34.07324;943.8702;;;;
2020/05/22 06:44:54;;;;;;;3.7;1.7;;;;;;;27.85;32.54883;943.9024;;;;
2020/05/22 06:47:19;;;;;;;5;1.6;;;;;;;28.37;31.04004;943.8995;;;;
2020/05/22 06:49:45;;;;;;;3;1.6;;;;;;;28.07;33.88281;943.9147;;;;
2020/05/22 06:52:10;;;;;;;2.7;1.7;;;;;;;28.28;32.92383;943.933;;;;
2020/05/22 06:54:37;;;;;;;2.8;1.7;;;;;;;28.48;32.76074;944.035;;;;
2020/05/22 06:57:02;;;;;;;3.3;1.5;;;;;;;29.51;30.05859;944.007;;;;
2020/05/22 06:59:27;;;;;;;2.6;1.7;;;;;;;29.67;31.09473;944.0123;;;;
2020/05/22 07:01:52;;;;;;;1.7;1.3;;;;;;;30.72;29.68457;944.0053;;;;
2020/05/22 07:04:19;;;;;;;3.7;1.3;;;;;;;30.03;28.75684;943.9897;;;;
2020/05/22 07:06:44;;;;;;;2.2;1.4;;;;;;;29.35;28.95215;943.9354;;;;
2020/05/22 07:09:09;;;;;;;4.3;1.3;;;;;;;28.34;30.76465;943.9567;;;;
2020/05/22 07:11:34;;;;;;;3.7;1.6;;;;;;;28.96;30.0332;943.967;;;;
2020/05/22 07:14:00;;;;;;;2.9;1.4;;;;;;;29.88;32.875;943.9097;;;;
2020/05/22 07:16:25;;;;;;;3;1.4;;;;;;;29.38;29.47754;943.7938;;;;
2020/05/22 07:21:15;;;;;;;1.7;1.2;;;;;;;29.06;29.98047;943.7961;;;;
2020/05/22 07:23:40;;;;;;;3.7;1.5;;;;;;;29.51;28.48535;943.7277;;;;
2020/05/22 07:26:05;;;;;;;1.9;1.4;;;;;;;29.79;28.51465;943.7862;;;;
2020/05/22 07:28:30;;;;;;;2.8;1.4;;;;;;;31.01;28.34082;943.7501;;;;
2020/05/22 07:30:57;;;;;;;2.9;1.1;;;;;;;32.55;25.60547;943.6781;;;;
2020/05/22 07:33:21;;;;;;;2.1;1.2;;;;;;;31.84;25.18164;943.7056;;;;
2020/05/22 07:35:50;;;;;;;5.4;1.6;;;;;;;31.35;26.45898;943.6312;;;;
2020/05/22 07:38:15;;;;;;;2.2;1.2;;;;;;;31.84;27.30273;943.6222;;;;
2020/05/22 07:40:40;;;;;;;2.5;1.3;;;;;;;32.92;26.33496;943.5653;;;;
2020/05/22 07:43:05;;;;;;;2.3;0.9;;;;;;;33.27;24.6123;943.5164;;;;
2020/05/22 07:45:30;;;;;;;1.2;1;;;;;;;32.33;24.88574;943.5195;;;;
2020/05/22 07:47:55;;;;;;;3.4;1.3;;;;;;;31.75;29.12988;943.4908;;;;
2020/05/22 07:50:20;;;;;;;1.6;1.1;;;;;;;32.32;28.80566;943.4529;;;;
2020/05/22 07:52:46;;;;;;;2.5;1;;;;;;;33.51;24.33594;943.3903;;;;
2020/05/22 07:55:11;;;;;;;1.3;1.1;;;;;;;34.1;23.08008;943.4214;;;;
2020/05/22 07:57:36;;;;;;;2.2;1;;;;;;;34.72;23.5332;943.4211;;;;
2020/05/22 08:00:01;;;;;;;3.4;1.2;;;;;;;34.41;24.07227;943.3694;;;;
2020/05/22 08:02:26;;;;;;;2;1.1;;;;;;;34.19;25.15625;943.3494;;;;
2020/05/22 08:04:51;;;;;;;1.9;0.9;;;;;;;33.31;27.11426;943.2787;;;;
2020/05/22 08:07:16;;;;;;;2.3;1.1;;;;;;;33.17;23.77832;943.2764;;;;
2020/05/22 08:09:41;;;;;;;3;1;;;;;;;32.05;28.27441;943.267;;;;
2020/05/22 08:12:06;;;;;;;2.8;1.1;;;;;;;32.12;27.67871;943.283;;;;
2020/05/22 08:14:32;;;;;;;2.7;1.2;;;;;;;30.97;32.66602;943.3185;;;;
2020/05/22 08:16:57;;;;;;;1.8;1.1;;;;;;;31.53;30.37207;943.2533;;;;
2020/05/22 08:19:22;;;;;;;1.9;1;;;;;;;32.13;29.14258;943.2252;;;;
2020/05/22 08:21:47;;;;;;;2.4;1.1;;;;;;;32.84;29.64453;943.2145;;;;
2020/05/22 08:24:13;;;;;;;2;1.2;;;;;;;33.06;24.6123;943.2275;;;;
2020/05/22 08:26:38;;;;;;;1.9;1.1;;;;;;;33.21;26.06348;943.1463;;;;
2020/05/22 08:29:03;;;;;;;1.7;1.1;;;;;;;31.88;27.7959;943.137;;;;
2020/05/22 08:31:28;;;;;;;1.9;1.2;;;;;;;32.43;25.4541;943.1472;;;;
2020/05/22 08:33:53;;;;;;;2.1;1.2;;;;;;;32.11;28.0498;943.157;;;;
2020/05/22 08:36:18;;;;;;;2.5;1.2;;;;;;;32.75;27.32129;943.1401;;;;
2020/05/22 08:38:43;;;;;;;2.2;1.1;;;;;;;31.73;28.31348;943.1669;;;;
2020/05/22 08:41:08;;;;;;;2;1.2;;;;;;;32.51;26.09473;943.1736;;;;
2020/05/22 08:43:33;;;;;;;2.4;1.2;;;;;;;31.91;28.8877;943.1875;;;;
2020/05/22 08:45:59;;;;;;;2;1.2;;;;;;;31.64;29.45801;943.193;;;;
2020/05/22 08:48:24;;;;;;;2.5;1.2;;;;;;;31.56;29.97949;943.2;;;;
2020/05/22 08:50:50;;;;;;;2.1;1.1;;;;;;;31.72;28.69727;943.1749;;;;
2020/05/22 08:53:15;;;;;;;2.3;1.2;;;;;;;31.25;27.2666;943.1933;;;;
2020/05/22 08:55:42;;;;;;;2.4;1.2;;;;;;;30.92;28.03613;943.2852;;;;
2020/05/22 08:58:07;;;;;;;2.4;1.1;;;;;;;30.74;27.98828;943.2698;;;;
2020/05/22 09:00:33;;;;;;;1.8;1.3;;;;;;;30.42;31.50391;943.2819;;;;
2020/05/22 09:02:58;;;;;;;1.3;1.1;;;;;;;30.43;30.62109;943.1741;;;;
2020/05/22 09:05:23;;;;;;;3.8;1.1;;;;;;;30.35;30.43652;943.225;;;;
2020/05/22 09:07:48;;;;;;;3.6;1.2;;;;;;;30.13;33.71582;943.259;;;;
2020/05/22 09:10:13;;;;;;;2.8;1.1;;;;;;;30.04;31.64551;943.2776;;;;
2020/05/22 09:12:38;;;;;;;4.9;1.8;;;;;;;29.66;31.67773;943.3398;;;;
2020/05/22 09:15:04;;;;;;;2.5;1.3;;;;;;;30.06;34.47461;943.3375;;;;
2020/05/22 09:17:30;;;;;;;3.9;1.5;;;;;;;29.99;33.5625;943.3769;;;;
2020/05/22 09:19:55;;;;;;;3.5;1.3;;;;;;;29.94;31.41113;943.4153;;;;
2020/05/22 09:22:20;;;;;;;2.3;1.2;;;;;;;30.45;31.19629;943.4256;;;;
2020/05/22 09:24:45;;;;;;;2.1;1.1;;;;;;;30.49;32.93066;943.4331;;;;
2020/05/22 09:27:10;;;;;;;3;1.1;;;;;;;30.63;31.69824;943.38;;;;
2020/05/22 09:29:35;;;;;;;3.8;1.2;;;;;;;30.52;31.88184;943.3649;;;;
2020/05/22 09:32:00;;;;;;;2.9;1.1;;;;;;;30.02;31.48828;943.3505;;;;
2020/05/22 09:34:45;;;;;;;4;1.3;;;;;;;29.65;33.03613;943.4526;;;;
2020/05/22 09:36:50;;;;;;;2;1.2;;;;;;;29.43;31.80469;943.4111;;;;
2020/05/22 09:39:16;;;;;;;2.3;1.2;;;;;;;29.19;32.2168;943.432;;;;
2020/05/22 09:44:06;;;;;;;3.3;1.2;;;;;;;28.91;34.85059;943.5095;;;;
2020/05/22 09:46:31;;;;;;;4.4;1.3;;;;;;;28.89;33.84961;943.4857;;;;
2020/05/22 09:48:56;;;;;;;3.3;1.2;;;;;;;28.8;34.0332;943.5087;;;;
2020/05/22 09:51:21;;;;;;;4.4;1.2;;;;;;;28.66;34.92773;943.5186;;;;
2020/05/22 09:53:46;;;;;;;2.6;1.2;;;;;;;28.65;34.29492;943.562;;;;
2020/05/22 09:56:11;;;;;;;2.5;1.2;;;;;;;28.7;34.31152;943.605;;;;
2020/05/22 09:58:37;;;;;;;2.6;1.3;;;;;;;28.73;35.22852;943.6292;;;;
2020/05/22 10:01:03;;;;;;;3.2;1.1;;;;;;;28.78;33.72266;943.6663;;;;
2020/05/22 10:03:30;;;;;;;2.4;1.2;;;;;;;28.75;35.0166;943.6905;;;;
2020/05/22 10:05:53;;;;;;;1.5;1.4;;;;;;;28.59;33.57715;943.7391;;;;
2020/05/22 10:08:19;;;;;;;4.3;1.6;;;;;;;28.54;34.28711;943.6827;;;;
2020/05/22 10:10:44;;;;;;;2.4;1.3;;;;;;;28.75;34.63574;943.6003;;;;
2020/05/22 10:13:09;;;;;;;3.1;1.4;;;;;;;28.79;36.22266;943.6578;;;;
2020/05/22 10:18:02;;;;;;;7.7;5.6;;;;;;;29.14;34.02246;943.6245;;;;
2020/05/22 10:20:24;;;;;;;2.6;1.9;;;;;;;29.37;34.48242;943.5912;;;;
2020/05/22 10:22:51;;;;;;;1.7;1.2;;;;;;;29.66;33.64551;943.6018;;;;
2020/05/22 10:25:16;;;;;;;2.2;1.5;;;;;;;29.9;31.12207;943.6119;;;;
2020/05/22 10:27:42;;;;;;;3.3;1.3;;;;;;;29.59;29.45508;943.6046;;;;
2020/05/22 10:30:07;;;;;;;1.6;1.1;;;;;;;29.3;30.59277;943.6339;;;;
2020/05/22 10:32:32;;;;;;;2.7;1.1;;;;;;;29.38;32.54004;943.6802;;;;
2020/05/22 10:34:57;;;;;;;2.4;1.2;;;;;;;29.57;32.43457;943.7123;;;;
2020/05/22 10:37:22;;;;;;;2.3;1.2;;;;;;;29.61;31.12598;943.6458;;;;
2020/05/22 10:39:50;;;;;;;2.8;1.2;;;;;;;29.62;32.09277;943.6813;;;;
2020/05/22 10:42:15;;;;;;;3;1.2;;;;;;;29.39;33.48145;943.7358;;;;
2020/05/22 10:44:41;;;;;;;1.8;0.9;;;;;;;29.33;32.14355;943.7382;;;;
2020/05/22 10:47:06;;;;;;;3.9;1.2;;;;;;;29.64;32.28418;943.71;;;;
2020/05/22 10:49:33;;;;;;;3.4;1.2;;;;;;;30.08;32.04102;943.7773;;;;
2020/05/22 10:51:58;;;;;;;2.2;1.1;;;;;;;30.14;32.10547;943.7481;;;;
2020/05/22 10:54:27;;;;;;;1.5;1.1;;;;;;;30.04;32.34961;943.7212;;;;
2020/05/22 10:56:52;;;;;;;3.5;1.2;;;;;;;30.17;31.32031;943.6941;;;;
2020/05/22 10:59:18;;;;;;;2.1;1.2;;;;;;;30.22;31.62207;943.6809;;;;
2020/05/22 11:01:43;;;;;;;3.4;1.1;;;;;;;30.09;31.57715;943.6774;;;;
2020/05/22 11:04:08;;;;;;;1.6;1;;;;;;;29.98;30.49609;943.6936;;;;
2020/05/22 11:06:33;;;;;;;1.8;0.9;;;;;;;29.86;30.53516;943.6565;;;;
2020/05/22 11:08:58;;;;;;;2.3;1.1;;;;;;;29.8;32.42676;943.6725;;;;
2020/05/22 11:11:23;;;;;;;4.1;1.2;;;;;;;29.68;33.48047;943.601;;;;
2020/05/22 11:13:48;;;;;;;5.5;1.2;;;;;;;29.69;34.31445;943.5787;;;;
2020/05/22 11:16:25;;;;;;;2.7;1.1;;;;;;;29.73;32.08789;943.6033;;;;
2020/05/22 11:18:45;;;;;;;2.6;1.1;;;;;;;29.58;31.8877;943.4892;;;;
2020/05/22 11:21:09;;;;;;;1.2;1;;;;;;;29.59;31.3877;943.5796;;;;
2020/05/22 11:26:01;;;;;;;1.6;1.1;;;;;;;29.87;31.4541;943.5808;;;;
2020/05/22 11:28:19;;;;;;;3.7;1.1;;;;;;;29.89;30.46582;943.4606;;;;
2020/05/22 11:30:45;;;;;;;2.3;1.1;;;;;;;29.95;27.64258;943.489;;;;
2020/05/22 11:33:10;;;;;;;2.1;1;;;;;;;29.96;30.76855;943.4979;;;;
2020/05/22 11:35:37;;;;;;;3.6;1;;;;;;;30.07;32.0293;943.491;;;;
2020/05/22 11:38:02;;;;;;;3.1;1;;;;;;;30.07;31.69531;943.5223;;;;
2020/05/22 11:40:31;;;;;;;2.2;1;;;;;;;30.02;29.9375;943.4924;;;;
2020/05/22 11:42:57;;;;;;;21.3;2.2;;;;;;;29.84;31.39258;943.4455;;;;
2020/05/22 11:45:21;;;;;;;5.7;1.2;;;;;;;29.3;32.51074;943.3306;;;;
2020/05/22 11:47:47;;;;;;;1.2;1.1;;;;;;;29.49;31.33301;943.3611;;;;
2020/05/22 11:50:13;;;;;;;1.5;1.1;;;;;;;29.45;30.72168;943.3759;;;;
2020/05/22 11:52:38;;;;;;;1.6;1;;;;;;;29.62;31.45996;943.2853;;;;
2020/05/22 11:55:04;;;;;;;2.7;1.2;;;;;;;29.89;33.62695;943.2881;;;;
2020/05/22 11:57:29;;;;;;;2.9;1.1;;;;;;;30.01;30.85449;943.3103;;;;
2020/05/22 11:59:54;;;;;;;2.8;1.1;;;;;;;28.92;30.74512;943.2777;;;;
2020/05/22 12:02:19;;;;;;;1.1;1;;;;;;;29.22;29.80078;943.2637;;;;
2020/05/22 12:04:44;;;;;;;2.6;1.2;;;;;;;29.51;31.20313;943.288;;;;
2020/05/22 12:07:11;;;;;;;4.1;1.1;;;;;;;29.82;31.97461;943.3652;;;;
2020/05/22 12:09:37;;;;;;;2.4;1.1;;;;;;;29.84;31.1416;943.3453;;;;
2020/05/22 12:12:02;;;;;;;1.7;1.1;;;;;;;29.96;31.55566;943.2949;;;;
2020/05/22 12:14:27;;;;;;;5.6;1.2;;;;;;;29.85;31.29785;943.3391;;;;
2020/05/22 12:17:00;;;;;;;2.6;1.1;;;;;;;29.61;29.27832;943.1428;;;;
2020/05/22 12:19:19;;;;;;;3.7;1;;;;;;;29.71;30.7041;943.1688;;;;
2020/05/22 12:24:09;;;;;;;1.8;1.1;;;;;;;29.86;31.40625;943.2051;;;;
2020/05/22 12:26:35;;;;;;;3.5;1.1;;;;;;;30.03;30.84473;943.2109;;;;
2020/05/22 12:29:01;;;;;;;3.3;1;;;;;;;29.78;30.58887;943.1564;;;;
2020/05/22 12:31:25;;;;;;;2.9;1;;;;;;;29.63;31.06836;943.1869;;;;
2020/05/22 12:33:51;;;;;;;3.4;1.2;;;;;;;29.63;29.13672;943.1458;;;;
2020/05/22 12:36:16;;;;;;;2.3;1.1;;;;;;;29.58;31.25488;943.153;;;;
2020/05/22 12:38:41;;;;;;;3.2;1.2;;;;;;;29.69;31.14355;943.1262;;;;
2020/05/22 12:41:07;;;;;;;3.3;1;;;;;;;29.74;31.73145;943.231;;;;
2020/05/22 12:43:32;;;;;;;4.2;1.3;;;;;;;29.86;31.29785;943.2377;;;;
2020/05/22 12:45:57;;;;;;;6.3;1.4;;;;;;;29.9;30.40625;943.2994;;;;
2020/05/22 12:48:26;;;;;;;8.7;1.3;;;;;;;29.75;28.77539;943.2712;;;;
2020/05/22 12:50:48;;;;;;;11.7;1.6;;;;;;;29.71;30.37012;943.3526;;;;
2020/05/22 12:55:45;;;;;;;10.5;1.5;;;;;;;29.44;30.87598;943.3377;;;;
2020/05/22 13:05:26;;;;;;;5.7;1.6;;;;;;;29.19;31.44336;943.313;;;;
2020/05/22 13:09:10;;;;;;;4.3;1.6;;;;;;;28.66;33;943.3251;;;;
2020/05/22 13:18:14;;;;;;;2.6;1.2;;;;;;;28.35;30.49121;943.1569;;;;
2020/05/22 13:27:25;;;;;;;2.6;1.2;;;;;;;29.14;31.66602;943.2255;;;;
2020/05/22 13:29:36;;;;;;;2.9;1.2;;;;;;;29.2;31.44336;943.2256;;;;
2020/05/22 13:39:25;;;;;;;3.5;1;;;;;;;28.96;30.22363;943.1181;;;;
2020/05/22 13:44:02;;;;;;;1.6;1;;;;;;;28.79;31.7832;943.0717;;;;
2020/05/22 13:46:30;;;;;;;2;1.2;;;;;;;28.41;32.68359;943.0012;;;;
2020/05/22 14:01:11;;;;;;;2.1;1;;;;;;;28.1;28.36133;943.14;;;;
2020/05/22 14:11:03;;;;;;;2.3;0.9;;;;;;;29.02;29.68066;943.095;;;;
2020/05/22 14:18:06;;;;;;;3;1.1;;;;;;;28.94;30.12793;943.073;;;;
2020/05/22 14:20:29;;;;;;;2.5;1.1;;;;;;;28.64;31.14258;943.0158;;;;
2020/05/22 14:25:28;;;;;;;4.3;1.1;;;;;;;28.1;33.1377;942.9805;;;;
2020/05/22 14:34:59;;;;;;;7.5;1.7;;;;;;;27.54;28.18359;942.9141;;;;
2020/05/22 14:40:36;;;;;;;3.3;1;;;;;;;27;30.82813;942.8965;;;;
2020/05/22 14:42:20;;;;;;;7.4;1;;;;;;;27.03;27.51172;942.9363;;;;
2020/05/22 14:44:38;;;;;;;2;1;;;;;;;27.23;23.89453;942.9604;;;;
2020/05/22 14:46:58;;;;;;;1.7;0.9;;;;;;;27.46;22.44727;942.9026;;;;
2020/05/22 14:49:43;;;;;;;2.3;0.7;;;;;;;27.25;24.68945;942.8656;;;;
2020/05/22 14:52:17;;;;;;;1.9;0.8;;;;;;;27.54;26.43848;942.8455;;;;
2020/05/22 14:54:43;;;;;;;2.3;0.9;;;;;;;27.82;28.8418;942.8846;;;;
2020/05/22 14:57:11;;;;;;;1.7;0.9;;;;;;;27.93;26.93652;942.8669;;;;
2020/05/22 14:59:47;;;;;;;1.3;0.8;;;;;;;27.75;22.65137;942.9066;;;;
2020/05/22 15:03:14;;;;;;;2.5;0.7;;;;;;;27.7;20.41699;942.8895;;;;
2020/05/22 15:05:35;;;;;;;5.2;0.8;;;;;;;27.89;20.58008;942.8181;;;;
2020/05/22 15:08:00;;;;;;;2.2;0.6;;;;;;;27.89;20.01074;942.8469;;;;
2020/05/22 15:10:49;;;;;;;1.7;0.6;;;;;;;27.94;20.92676;942.8345;;;;
2020/05/22 15:16:50;;;;;;;3.3;0.7;;;;;;;27.96;21.49805;942.8875;;;;
2020/05/22 15:19:37;;;;;;;3.6;0.9;;;;;;;28.03;21.16895;942.9405;;;;
2020/05/22 15:21:26;;;;;;;1.9;0.7;;;;;;;28.18;25.15723;942.9386;;;;
2020/05/22 15:26:14;;;;;;;3.9;1;;;;;;;27.99;22.2959;942.9235;;;;
2020/05/22 15:28:40;;;;;;;2.1;0.6;;;;;;;27.7;21.4502;942.9601;;;;
2020/05/22 15:31:10;;;;;;;2;0.7;;;;;;;27.75;19.00684;942.9158;;;;
2020/05/22 15:33:37;;;;;;;1.1;0.6;;;;;;;27.86;20.06836;942.9242;;;;
2020/05/22 15:36:12;;;;;;;1.4;0.6;;;;;;;28.06;21.0752;942.8784;;;;
2020/05/22 15:38:36;;;;;;;2.4;0.7;;;;;;;28.24;21.84473;942.8259;;;;
2020/05/22 15:40:54;;;;;;;3.1;0.7;;;;;;;28.43;21.50879;942.8583;;;;
2020/05/22 15:43:23;;;;;;;1.5;0.6;;;;;;;28.43;19.91602;942.7928;;;;
2020/05/22 15:51:12;;;;;;;2.4;0.8;;;;;;;27.85;22.25293;942.7541;;;;
2020/05/22 15:52:59;;;;;;;1.7;0.7;;;;;;;27.78;20.52832;942.6746;;;;
2020/05/22 15:55:57;;;;;;;1.3;0.8;;;;;;;27.46;19.23242;942.7355;;;;
2020/05/22 16:01:24;;;;;;;1.4;0.7;;;;;;;27.59;21.9082;942.7584;;;;
2020/05/22 16:05:22;;;;;;;3.8;0.9;;;;;;;27.35;25.39551;942.7;;;;
2020/05/22 16:07:29;;;;;;;1.9;0.8;;;;;;;27.32;25.98633;942.7495;;;;
2020/05/22 16:14:46;;;;;;;2;0.8;;;;;;;27.19;24.42578;942.9115;;;;
2020/05/22 16:19:56;;;;;;;4.9;0.9;;;;;;;27.45;28.4502;942.873;;;;
2020/05/22 16:22:03;;;;;;;4.5;0.9;;;;;;;27.42;28.38867;942.9556;;;;
2020/05/22 16:24:47;;;;;;;4.3;0.8;;;;;;;27.25;26.16016;942.9573;;;;
2020/05/22 16:26:48;;;;;;;2.8;0.9;;;;;;;27.06;26.65918;942.9113;;;;
2020/05/22 16:31:57;;;;;;;5;0.8;;;;;;;27.1;29.25781;942.8899;;;;